Time;durP1;ratioP1;P1;durP2;ratioP2;P2;SDS_P1;SDS_P2;PMS_P1;PMS_P2;Temp;Humidity;BMP_temperature;BMP_pressure;BME280_temperature;BME280_humidity;BME280_pressure;Samples;Min_cycle;Max_cycle;Signal;HPM_P1;HPM_P2
2022/01/05 00:00:14;;;;;;;0.80;0.80;;;5.80;92.20;5.20;96697.00;;;;5097090;28;20194;-80
2022/01/05 00:02:41;;;;;;;0.60;0.60;;;5.90;92.20;5.20;96689.00;;;;5096801;28;20217;-80
2022/01/05 00:05:08;;;;;;;0.60;0.60;;;5.90;91.30;5.30;96683.00;;;;5096827;28;20214;-80
2022/01/05 00:07:37;;;;;;;0.60;0.60;;;6.00;91.10;5.30;96683.00;;;;5097767;28;20641;-80
2022/01/05 00:10:06;;;;;;;0.60;0.60;;;6.00;90.60;5.30;96675.00;;;;5099794;28;20202;-79
2022/01/05 00:12:32;;;;;;;0.60;0.60;;;6.00;90.60;5.30;96678.00;;;;5099094;28;20686;-80
2022/01/05 00:14:59;;;;;;;1.80;0.97;;;6.00;90.70;5.30;96684.00;;;;5097283;28;20224;-80
2022/01/05 00:17:27;;;;;;;0.67;0.67;;;6.00;90.40;5.30;96689.00;;;;5096757;28;20205;-80
2022/01/05 00:19:54;;;;;;;0.63;0.63;;;6.00;90.70;5.30;96679.00;;;;5096704;28;20222;-80
2022/01/05 00:22:20;;;;;;;0.60;0.60;;;6.00;91.00;5.30;96680.00;;;;5096671;28;20344;-80
2022/01/05 00:24:47;;;;;;;0.73;0.73;;;6.10;90.50;5.20;96681.00;;;;5096612;28;20309;-79
2022/01/05 00:27:13;;;;;;;0.60;0.60;;;6.00;90.10;5.30;96683.00;;;;5096688;28;20217;-80
2022/01/05 00:29:40;;;;;;;0.63;0.60;;;6.10;90.70;5.40;96678.00;;;;5096547;28;20198;-80
2022/01/05 00:32:08;;;;;;;0.50;0.50;;;6.10;90.50;5.20;96675.00;;;;5096587;28;20226;-80
2022/01/05 00:34:36;;;;;;;0.70;0.70;;;6.00;90.40;5.00;96612.00;;;;5096444;28;20198;-78
2022/01/05 00:37:03;;;;;;;0.50;0.50;;;5.90;91.20;5.30;96663.00;;;;5097353;28;20198;-79
2022/01/05 00:39:29;;;;;;;0.60;0.60;;;6.00;91.20;5.30;96648.00;;;;5100122;28;20657;-79
2022/01/05 00:41:56;;;;;;;0.60;0.60;;;6.00;89.40;5.40;96643.00;;;;5100170;28;20222;-78
2022/01/05 00:44:24;;;;;;;0.50;0.50;;;6.10;89.30;5.30;96637.00;;;;5100527;28;20300;-80
2022/01/05 00:46:51;;;;;;;0.60;0.60;;;6.10;89.10;5.50;96653.00;;;;5100912;28;20194;-78
2022/01/05 00:49:18;;;;;;;0.60;0.60;;;6.20;89.10;5.30;96658.00;;;;5109411;28;20261;-80
2022/01/05 00:51:45;;;;;;;0.63;0.63;;;6.00;88.70;5.30;96642.00;;;;5111307;28;20225;-80
2022/01/05 00:54:11;;;;;;;0.60;0.60;;;6.00;89.20;5.20;96631.00;;;;5105800;28;20216;-80
2022/01/05 00:56:40;;;;;;;0.50;0.50;;;6.00;89.90;5.10;96638.00;;;;5100016;28;20230;-80
2022/01/05 00:59:07;;;;;;;0.50;0.50;;;5.90;89.50;5.10;96639.00;;;;5101021;28;20241;-80
2022/01/05 01:01:33;;;;;;;0.70;0.70;;;5.90;89.60;5.10;96629.00;;;;5100853;28;20278;-78
2022/01/05 01:04:00;;;;;;;0.70;0.70;;;5.90;89.10;5.20;96635.00;;;;5110181;28;20206;-80
2022/01/05 01:06:29;;;;;;;0.60;0.60;;;5.90;89.80;4.90;96609.00;;;;5111956;28;20201;-80
2022/01/05 01:08:58;;;;;;;0.60;0.60;;;5.80;90.10;4.90;96624.00;;;;5109014;28;20574;-80
2022/01/05 01:11:27;;;;;;;0.57;0.57;;;5.70;90.10;5.10;96636.00;;;;5099998;28;20239;-79
2022/01/05 01:13:54;;;;;;;0.60;0.60;;;5.80;90.00;5.10;96651.00;;;;5099719;28;20214;-81
2022/01/05 01:16:21;;;;;;;0.50;0.50;;;5.80;90.20;5.00;96658.00;;;;5099555;28;20281;-80
2022/01/05 01:18:47;;;;;;;0.50;0.50;;;5.80;90.20;5.10;96665.00;;;;5099377;28;20230;-80
2022/01/05 01:21:14;;;;;;;0.60;0.60;;;5.80;89.50;5.00;96664.00;;;;5099398;28;20258;-79
2022/01/05 01:23:48;;;;;;;0.60;0.60;;;5.80;89.90;5.10;96668.00;;;;5099468;28;20209;-79
2022/01/05 01:26:15;;;;;;;1.27;1.20;;;5.90;89.90;5.10;96676.00;;;;5099450;28;20226;-79
2022/01/05 01:28:43;;;;;;;0.60;0.60;;;5.90;89.20;5.00;96656.00;;;;5099192;28;20210;-80
2022/01/05 01:31:09;;;;;;;0.50;0.50;;;5.80;89.30;5.10;96655.00;;;;5099039;28;20234;-79
2022/01/05 01:33:39;;;;;;;0.50;0.50;;;5.80;89.40;5.20;96664.00;;;;5099192;28;20220;-79
2022/01/05 01:36:06;;;;;;;0.50;0.50;;;5.90;88.90;5.00;96670.00;;;;5099202;28;20196;-80
2022/01/05 01:38:32;;;;;;;0.60;0.60;;;5.80;89.30;5.10;96670.00;;;;5098842;28;20324;-80
2022/01/05 01:40:59;;;;;;;0.63;0.63;;;5.80;89.40;5.00;96673.00;;;;5099152;28;20214;-80
2022/01/05 01:43:28;;;;;;;0.50;0.50;;;5.80;89.50;5.10;96673.00;;;;5115903;28;20218;-80
2022/01/05 01:45:55;;;;;;;0.60;0.60;;;5.80;89.80;5.20;96675.00;;;;5098945;28;20218;-80
2022/01/05 01:48:21;;;;;;;0.50;0.50;;;5.90;89.60;5.10;96683.00;;;;5097988;28;20294;-80
2022/01/05 01:50:48;;;;;;;0.50;0.50;;;5.90;89.30;5.10;96675.00;;;;5098810;28;20641;-80
2022/01/05 01:53:14;;;;;;;0.60;0.60;;;5.90;88.90;5.00;96681.00;;;;5082060;28;20285;-78
2022/01/05 01:55:41;;;;;;;0.50;0.50;;;5.80;89.50;5.10;96680.00;;;;5098832;28;20732;-80
2022/01/05 01:58:10;;;;;;;0.60;0.60;;;5.80;90.10;5.20;96679.00;;;;5098954;28;20225;-80
2022/01/05 02:00:37;;;;;;;0.50;0.50;;;5.90;91.00;5.10;96682.00;;;;5098864;28;20263;-80
2022/01/05 02:03:06;;;;;;;0.60;0.60;;;5.90;89.70;5.20;96681.00;;;;5098704;28;20537;-79
2022/01/05 02:05:35;;;;;;;0.60;0.60;;;5.90;90.50;5.10;96671.00;;;;5098659;28;20236;-80
2022/01/05 02:08:02;;;;;;;0.50;0.50;;;5.80;90.20;5.10;96682.00;;;;5098741;28;20202;-80
2022/01/05 02:10:29;;;;;;;0.80;0.80;;;5.90;90.50;5.10;96697.00;;;;5098730;28;20740;-80
2022/01/05 02:12:56;;;;;;;0.50;0.50;;;5.90;90.70;5.00;96709.00;;;;5098518;28;20199;-79
2022/01/05 02:15:23;;;;;;;0.60;0.60;;;5.80;90.90;5.00;96714.00;;;;5098514;28;20248;-80
2022/01/05 02:17:57;;;;;;;0.60;0.60;;;5.90;90.80;5.20;96708.00;;;;5098593;28;20617;-79
2022/01/05 02:20:28;;;;;;;0.60;0.60;;;5.90;90.10;5.10;96692.00;;;;5098701;28;20544;-79
2022/01/05 02:22:56;;;;;;;0.60;0.60;;;5.90;90.30;5.10;96694.00;;;;5098490;28;20231;-80
2022/01/05 02:25:23;;;;;;;0.50;0.50;;;6.00;89.80;5.10;96696.00;;;;5098473;28;20235;-79
2022/01/05 02:27:52;;;;;;;0.50;0.50;;;5.90;90.20;5.30;96665.00;;;;5098317;28;20301;-80
2022/01/05 02:30:23;;;;;;;0.40;0.40;;;6.00;90.10;5.10;96696.00;;;;5098488;28;20526;-80
2022/01/05 02:32:51;;;;;;;0.60;0.60;;;5.90;90.30;5.30;96699.00;;;;5098539;28;20243;-79
2022/01/05 02:35:19;;;;;;;0.50;0.50;;;6.00;90.00;5.20;96689.00;;;;5098474;28;20190;-80
2022/01/05 02:37:49;;;;;;;0.50;0.50;;;6.00;90.00;5.20;96693.00;;;;5098180;28;20559;-79
2022/01/05 02:40:22;;;;;;;0.70;0.70;;;6.00;89.40;5.40;96701.00;;;;5098271;28;20218;-80
2022/01/05 02:42:52;;;;;;;0.60;0.60;;;6.10;89.00;5.40;96694.00;;;;5098190;28;20235;-80
2022/01/05 02:45:21;;;;;;;0.70;0.70;;;6.10;88.90;5.10;96689.00;;;;5098148;28;20229;-79
2022/01/05 02:47:48;;;;;;;0.50;0.50;;;6.00;89.60;5.10;96701.00;;;;5098272;28;20218;-80
2022/01/05 02:50:17;;;;;;;0.60;0.60;;;6.00;90.60;5.10;96701.00;;;;5098096;28;20237;-78
2022/01/05 02:52:44;;;;;;;0.50;0.50;;;5.90;90.70;5.20;96707.00;;;;5097996;28;20217;-81
2022/01/05 02:55:12;;;;;;;0.50;0.50;;;6.00;90.70;5.20;96708.00;;;;5115026;28;20680;-81
2022/01/05 02:57:39;;;;;;;0.60;0.60;;;6.00;90.50;5.20;96701.00;;;;5097929;28;20233;-80
2022/01/05 03:00:09;;;;;;;0.60;0.60;;;6.00;90.30;5.30;96713.00;;;;5097890;28;20202;-80
2022/01/05 03:02:36;;;;;;;0.50;0.50;;;6.10;90.50;5.20;96705.00;;;;5097975;28;20561;-80
2022/01/05 03:05:04;;;;;;;0.50;0.50;;;6.00;90.50;5.20;96701.00;;;;5097778;28;20374;-81
2022/01/05 03:07:32;;;;;;;0.60;0.60;;;6.00;90.10;5.30;96709.00;;;;5097973;28;20656;-80
2022/01/05 03:09:59;;;;;;;0.60;0.60;;;6.00;89.60;5.30;96704.00;;;;5097966;28;20214;-80
2022/01/05 03:12:25;;;;;;;0.50;0.50;;;6.00;89.90;5.40;96705.00;;;;5098153;28;20308;-80
2022/01/05 03:14:53;;;;;;;0.60;0.60;;;6.10;90.20;5.60;96714.00;;;;5098777;28;20211;-80
2022/01/05 03:17:19;;;;;;;0.50;0.50;;;6.20;88.90;5.40;96712.00;;;;5101402;28;20203;-79
2022/01/05 03:19:48;;;;;;;0.60;0.60;;;6.10;88.90;5.40;96718.00;;;;5099357;28;20228;-80
2022/01/05 03:22:14;;;;;;;0.83;0.83;;;6.20;89.20;5.40;96721.00;;;;5097754;28;20221;-80
2022/01/05 03:24:41;;;;;;;0.60;0.60;;;6.10;90.00;5.50;96728.00;;;;5097620;28;20236;-80
2022/01/05 03:27:08;;;;;;;0.50;0.50;;;6.20;89.50;5.30;96711.00;;;;5114610;28;20208;-79
2022/01/05 03:29:34;;;;;;;0.57;0.57;;;6.20;89.30;5.40;96707.00;;;;5097627;28;20194;-80
2022/01/05 03:32:02;;;;;;;0.60;0.60;;;6.10;89.50;5.50;96715.00;;;;5097364;28;20232;-80
2022/01/05 03:34:28;;;;;;;0.60;0.60;;;6.20;89.60;5.50;96716.00;;;;5097446;28;20239;-79
2022/01/05 03:36:57;;;;;;;0.50;0.50;;;6.20;89.50;5.40;96722.00;;;;5097547;28;20198;-80
2022/01/05 03:39:24;;;;;;;0.50;0.50;;;6.20;90.00;5.40;96721.00;;;;5097408;28;20197;-81
2022/01/05 03:41:50;;;;;;;0.50;0.50;;;6.10;90.30;5.20;96727.00;;;;5097231;28;20227;-79
2022/01/05 03:44:17;;;;;;;0.60;0.60;;;6.00;90.90;5.30;96730.00;;;;5097294;28;20316;-79
2022/01/05 03:46:43;;;;;;;0.60;0.60;;;6.00;91.60;5.20;96734.00;;;;5097388;28;20533;-80
2022/01/05 03:49:10;;;;;;;0.50;0.50;;;6.00;92.20;5.20;96741.00;;;;5097173;28;20203;-80
2022/01/05 03:51:37;;;;;;;0.60;0.60;;;6.00;92.40;5.10;96727.00;;;;5097108;28;20217;-79
2022/01/05 03:54:03;;;;;;;0.50;0.50;;;6.00;93.00;5.10;96745.00;;;;5097297;28;20632;-79
2022/01/05 03:56:30;;;;;;;0.50;0.50;;;6.00;93.40;5.20;96741.00;;;;5097265;28;20285;-79
2022/01/05 03:58:56;;;;;;;0.57;0.57;;;6.00;93.30;5.20;96742.00;;;;5097003;28;20279;-79
2022/01/05 04:01:23;;;;;;;0.60;0.60;;;6.00;94.50;5.10;96751.00;;;;5097242;28;20249;-80
2022/01/05 04:03:49;;;;;;;0.40;0.40;;;5.90;94.10;5.30;96756.00;;;;5097328;28;20720;-79
2022/01/05 04:06:19;;;;;;;0.60;0.60;;;6.00;93.90;5.20;96768.00;;;;5097830;28;20276;-80
2022/01/05 04:08:45;;;;;;;0.60;0.60;;;6.00;94.00;5.10;96763.00;;;;5097382;28;20297;-79
2022/01/05 04:11:12;;;;;;;0.60;0.60;;;5.90;94.50;5.20;96763.00;;;;5096273;28;20268;-79
2022/01/05 04:13:38;;;;;;;0.60;0.60;;;6.00;94.80;5.10;96763.00;;;;5096511;28;20271;-80
2022/01/05 04:16:07;;;;;;;0.60;0.60;;;6.00;94.30;5.10;96778.00;;;;5096794;28;20197;-79
2022/01/05 04:18:36;;;;;;;0.60;0.60;;;5.90;95.00;5.20;96786.00;;;;5096697;28;20228;-78
2022/01/05 04:21:03;;;;;;;0.60;0.60;;;6.00;95.20;5.20;96786.00;;;;5096740;28;20204;-79
2022/01/05 04:23:30;;;;;;;0.50;0.50;;;6.00;94.90;5.10;96780.00;;;;5096772;28;20233;-79
2022/01/05 04:25:56;;;;;;;0.63;0.63;;;5.90;95.00;5.30;96798.00;;;;5096803;28;20204;-79
2022/01/05 04:28:23;;;;;;;0.57;0.57;;;6.00;94.50;5.40;96800.00;;;;5096520;28;20250;-79
2022/01/05 04:30:49;;;;;;;0.53;0.53;;;6.10;94.90;5.30;96811.00;;;;5096944;28;20525;-79
2022/01/05 04:33:16;;;;;;;0.67;0.67;;;6.00;94.50;5.50;96794.00;;;;5099612;28;20210;-80
2022/01/05 04:35:42;;;;;;;0.60;0.60;;;6.20;94.30;5.50;96814.00;;;;5097451;28;20664;-80
2022/01/05 04:38:09;;;;;;;0.60;0.60;;;6.20;94.00;5.50;96812.00;;;;5097160;28;20225;-81
2022/01/05 04:40:39;;;;;;;0.60;0.60;;;6.20;94.10;5.50;96819.00;;;;5098030;28;20615;-79
2022/01/05 04:43:05;;;;;;;0.60;0.60;;;6.20;93.70;5.50;96840.00;;;;5097328;28;20229;-80
2022/01/05 04:45:31;;;;;;;0.60;0.60;;;6.20;92.40;5.40;96834.00;;;;5097661;28;20321;-79
2022/01/05 04:47:58;;;;;;;0.50;0.50;;;6.20;91.80;5.50;96848.00;;;;5097440;28;20227;-80
2022/01/05 04:50:24;;;;;;;0.67;0.67;;;6.20;89.70;5.50;96839.00;;;;5096955;28;20195;-81
2022/01/05 04:52:53;;;;;;;0.50;0.50;;;6.30;90.60;5.50;96830.00;;;;5096739;28;20205;-80
2022/01/05 04:55:20;;;;;;;0.50;0.50;;;6.20;90.50;5.40;96842.00;;;;5096823;28;20206;-80
2022/01/05 04:57:49;;;;;;;0.50;0.50;;;6.30;90.10;5.50;96853.00;;;;5096443;28;20688;-80
2022/01/05 05:00:16;;;;;;;0.70;0.70;;;6.20;89.70;5.40;96830.00;;;;5096313;28;20224;-80
2022/01/05 05:02:43;;;;;;;0.60;0.60;;;6.20;89.70;5.40;96842.00;;;;5096719;28;20278;-80
2022/01/05 05:05:09;;;;;;;0.97;0.97;;;6.20;89.40;5.40;96856.00;;;;5097282;28;20527;-80
2022/01/05 05:07:36;;;;;;;0.60;0.60;;;6.20;89.40;5.20;96909.00;;;;5106831;28;20208;-79
2022/01/05 05:10:03;;;;;;;0.50;0.50;;;6.10;84.80;4.30;96923.00;;;;5108459;28;20245;-80
2022/01/05 05:12:29;;;;;;;0.50;0.50;;;5.60;80.20;4.10;96934.00;;;;5102379;28;20289;-79
2022/01/05 05:14:56;;;;;;;0.50;0.50;;;5.00;84.10;3.70;96938.00;;;;5096676;28;20285;-80
2022/01/05 05:17:23;;;;;;;0.50;0.50;;;4.70;85.10;3.60;96942.00;;;;5097519;28;20249;-80
2022/01/05 05:19:52;;;;;;;0.50;0.50;;;4.50;86.70;3.50;96962.00;;;;5097381;28;20305;-80
2022/01/05 05:22:18;;;;;;;0.70;0.70;;;4.40;87.30;3.00;96962.00;;;;5104028;28;20233;-80
2022/01/05 05:24:45;;;;;;;0.50;0.50;;;4.10;87.70;2.90;96971.00;;;;5111560;28;20259;-80
2022/01/05 05:27:11;;;;;;;0.50;0.50;;;3.90;88.80;2.80;96976.00;;;;5111943;28;20242;-80
2022/01/05 05:29:38;;;;;;;0.70;0.70;;;3.80;89.40;2.80;96979.00;;;;5100276;28;20291;-79
2022/01/05 05:32:09;;;;;;;0.70;0.70;;;3.70;90.10;2.90;96984.00;;;;5099359;28;20222;-79
2022/01/05 05:34:35;;;;;;;0.50;0.50;;;3.70;90.40;2.90;96992.00;;;;5116309;28;20618;-80
2022/01/05 05:37:02;;;;;;;0.60;0.60;;;3.70;90.00;2.70;96993.00;;;;5099136;28;20201;-80
2022/01/05 05:39:33;;;;;;;1.33;1.33;;;3.60;90.60;2.80;96990.00;;;;5099236;28;20194;-79
2022/01/05 05:41:59;;;;;;;0.60;0.60;;;3.60;91.70;2.70;97007.00;;;;5099055;28;20221;-80
2022/01/05 05:44:26;;;;;;;0.60;0.60;;;3.50;92.00;2.70;97015.00;;;;5099114;28;20225;-79
2022/01/05 05:46:52;;;;;;;0.80;0.80;;;3.50;93.40;2.80;97017.00;;;;5099195;28;20198;-80
2022/01/05 05:49:22;;;;;;;0.53;0.53;;;3.60;93.10;2.60;97029.00;;;;5099079;28;20288;-80
2022/01/05 05:51:48;;;;;;;0.97;0.97;;;3.40;93.60;2.70;97023.00;;;;5116079;28;20250;-80
2022/01/05 05:54:17;;;;;;;2.00;1.63;;;3.50;93.50;2.60;97033.00;;;;5098988;28;20228;-79
2022/01/05 05:56:43;;;;;;;0.60;0.60;;;3.50;94.10;2.60;97041.00;;;;5099053;28;20194;-80
2022/01/05 05:59:10;;;;;;;0.80;0.80;;;3.50;93.40;2.80;97039.00;;;;5098983;28;20202;-80
2022/01/05 06:01:36;;;;;;;0.50;0.50;;;3.50;93.00;2.80;97046.00;;;;5098749;28;20305;-80
2022/01/05 06:04:04;;;;;;;0.60;0.60;;;3.50;93.70;2.90;97053.00;;;;5098775;28;20279;-80
2022/01/05 06:06:33;;;;;;;0.83;0.83;;;3.70;92.70;3.00;97056.00;;;;5098763;28;20197;-79
2022/01/05 06:09:02;;;;;;;0.50;0.50;;;3.80;93.10;3.10;97064.00;;;;5098819;28;20201;-80
2022/01/05 06:11:29;;;;;;;0.60;0.60;;;3.80;92.90;3.00;97062.00;;;;5098849;28;20313;-81
2022/01/05 06:13:55;;;;;;;0.70;0.70;;;3.90;91.10;3.10;97074.00;;;;5098723;28;20625;-81
2022/01/05 06:16:22;;;;;;;0.90;0.63;;;3.90;92.10;3.10;97083.00;;;;5098682;28;20643;-80
2022/01/05 06:18:49;;;;;;;0.90;0.90;;;3.90;91.90;3.10;97097.00;;;;5098786;28;20201;-80
2022/01/05 06:21:18;;;;;;;0.77;0.77;;;3.90;93.00;3.20;97102.00;;;;5099182;28;20197;-81
2022/01/05 06:23:45;;;;;;;0.60;0.60;;;3.90;91.80;3.20;97105.00;;;;5098485;28;20271;-80
2022/01/05 06:26:11;;;;;;;0.60;0.60;;;3.90;91.80;3.30;97112.00;;;;5098672;28;20637;-80
2022/01/05 06:28:38;;;;;;;0.50;0.50;;;4.00;90.80;3.20;97101.00;;;;5099277;28;20209;-81
2022/01/05 06:31:07;;;;;;;0.60;0.60;;;4.00;91.10;3.20;97115.00;;;;5098366;28;20229;-80
2022/01/05 06:33:33;;;;;;;0.50;0.50;;;4.00;91.60;3.30;97117.00;;;;5098502;28;20190;-80
2022/01/05 06:36:02;;;;;;;0.63;0.63;;;4.00;91.60;3.30;97123.00;;;;5097807;28;20209;-80
2022/01/05 06:38:29;;;;;;;0.77;0.73;;;4.10;91.30;3.10;97121.00;;;;5098264;28;20220;-80
2022/01/05 06:40:59;;;;;;;0.70;0.70;;;4.00;90.60;3.10;97127.00;;;;5098441;28;20229;-80
2022/01/05 06:43:25;;;;;;;0.53;0.53;;;3.90;91.50;3.20;97129.00;;;;5098359;28;20668;-79
2022/01/05 06:45:54;;;;;;;1.13;1.13;;;4.00;91.80;3.20;97143.00;;;;5098535;28;20236;-80
2022/01/05 06:48:23;;;;;;;0.60;0.60;;;4.00;91.20;3.10;97143.00;;;;5098391;28;20217;-80
2022/01/05 06:50:50;;;;;;;0.60;0.60;;;3.90;90.30;3.00;97158.00;;;;5098121;28;20232;-79
2022/01/05 06:53:16;;;;;;;0.60;0.60;;;3.80;90.40;2.80;97147.00;;;;5098151;28;20198;-80
2022/01/05 06:55:43;;;;;;;0.50;0.50;;;3.70;90.10;2.80;97154.00;;;;5098026;28;20308;-79
2022/01/05 06:58:10;;;;;;;0.60;0.60;;;3.60;91.20;2.50;97166.00;;;;5097886;28;20258;-80
2022/01/05 07:00:39;;;;;;;0.60;0.60;;;3.40;91.20;2.60;97165.00;;;;5098026;28;20198;-79
2022/01/05 07:03:06;;;;;;;1.40;0.90;;;3.40;92.70;2.60;97173.00;;;;5097777;28;20225;-78
2022/01/05 07:05:32;;;;;;;0.50;0.50;;;3.40;91.90;2.80;97171.00;;;;5097854;28;20245;-78
2022/01/05 07:07:59;;;;;;;0.60;0.60;;;3.50;92.60;2.60;97165.00;;;;5098097;28;20577;-80
2022/01/05 07:10:28;;;;;;;0.60;0.60;;;3.50;92.40;2.80;97186.00;;;;5097726;28;20225;-80
2022/01/05 07:12:54;;;;;;;0.60;0.60;;;3.60;93.00;2.70;97186.00;;;;5097861;28;20241;-80
2022/01/05 07:15:25;;;;;;;0.50;0.50;;;3.50;92.70;2.60;97208.00;;;;5097626;28;20205;-80
2022/01/05 07:17:51;;;;;;;0.60;0.60;;;3.50;93.00;2.50;97199.00;;;;5097726;28;20216;-80
2022/01/05 07:20:18;;;;;;;0.60;0.60;;;3.40;92.60;2.60;97210.00;;;;5097552;28;20288;-80
2022/01/05 07:22:45;;;;;;;0.90;0.90;;;3.40;93.20;2.50;97206.00;;;;5097402;28;20325;-80
2022/01/05 07:25:12;;;;;;;0.63;0.63;;;3.40;92.20;2.40;97208.00;;;;5114549;28;20299;-80
2022/01/05 07:27:38;;;;;;;0.60;0.60;;;3.30;91.20;2.60;97211.00;;;;5097479;28;20247;-80
2022/01/05 07:30:07;;;;;;;0.50;0.50;;;3.40;90.20;2.70;97219.00;;;;5114584;28;20208;-82
2022/01/05 07:32:34;;;;;;;0.60;0.60;;;3.50;88.80;2.60;97225.00;;;;5097420;28;20224;-83
2022/01/05 07:35:01;;;;;;;0.70;0.70;;;3.50;87.60;2.70;97221.00;;;;5097477;28;20266;-81
2022/01/05 07:37:28;;;;;;;0.70;0.70;;;3.50;88.30;2.70;97225.00;;;;5114425;28;20204;-83
2022/01/05 07:39:54;;;;;;;0.77;0.77;;;3.50;86.80;2.60;97226.00;;;;5097414;28;20314;-82
2022/01/05 07:42:21;;;;;;;1.00;1.00;;;3.60;87.00;2.60;97231.00;;;;5114258;28;20262;-81
2022/01/05 07:44:47;;;;;;;0.60;0.60;;;3.40;87.40;2.60;97224.00;;;;5097257;28;20310;-80
2022/01/05 07:47:14;;;;;;;0.60;0.60;;;3.50;86.60;2.50;97240.00;;;;5096138;28;20244;-81
2022/01/05 07:49:41;;;;;;;0.60;0.60;;;3.40;86.00;2.40;97243.00;;;;5097087;28;20744;-82
2022/01/05 07:52:08;;;;;;;0.70;0.70;;;3.30;85.90;2.50;97244.00;;;;5097317;28;20202;-81
2022/01/05 07:54:36;;;;;;;0.63;0.63;;;3.40;85.00;2.30;97277.00;;;;5097299;28;20323;-81
2022/01/05 07:57:03;;;;;;;0.90;0.90;;;3.20;84.30;2.30;97278.00;;;;5097004;28;20234;-81
2022/01/05 07:59:30;;;;;;;0.60;0.60;;;3.20;85.50;2.20;97278.00;;;;5097233;28;20219;-85
2022/01/05 08:01:56;;;;;;;0.70;0.70;;;3.20;83.80;2.40;97278.00;;;;5097060;28;20324;-81
2022/01/05 08:04:25;;;;;;;0.70;0.70;;;3.20;84.60;2.40;97278.00;;;;5096935;28;20259;-79
2022/01/05 08:06:52;;;;;;;0.50;0.50;;;3.20;84.00;2.30;97299.00;;;;5096855;28;20251;-79
2022/01/05 08:09:19;;;;;;;0.70;0.70;;;3.10;85.30;2.10;97291.00;;;;5096920;28;20544;-78
2022/01/05 08:11:45;;;;;;;0.90;0.90;;;3.10;84.30;2.10;97293.00;;;;5096883;28;20200;-75
2022/01/05 08:14:12;;;;;;;0.70;0.70;;;3.20;85.00;2.30;97305.00;;;;5096759;28;20217;-80
2022/01/05 08:16:39;;;;;;;0.57;0.57;;;3.10;85.40;2.30;97328.00;;;;5096853;28;20261;-76
2022/01/05 08:19:05;;;;;;;0.60;0.60;;;3.10;85.40;2.40;97320.00;;;;5096807;28;20282;-75
2022/01/05 08:21:32;;;;;;;0.53;0.53;;;3.20;84.80;2.30;97338.00;;;;5096481;28;20233;-76
2022/01/05 08:23:59;;;;;;;2.13;0.90;;;3.20;84.40;2.30;97330.00;;;;5096649;28;20224;-75
2022/01/05 08:26:26;;;;;;;0.70;0.70;;;3.10;85.40;2.20;97338.00;;;;5096772;28;20645;-75
2022/01/05 08:28:52;;;;;;;0.70;0.70;;;3.10;84.90;2.20;97336.00;;;;5096059;28;20212;-75
2022/01/05 08:31:19;;;;;;;0.70;0.70;;;3.10;84.80;2.40;97340.00;;;;5096613;28;20277;-76
2022/01/05 08:33:45;;;;;;;1.10;1.00;;;3.20;84.70;2.10;97339.00;;;;5096523;28;20220;-76
2022/01/05 08:36:12;;;;;;;0.73;0.73;;;3.00;83.90;2.10;97352.00;;;;5096587;28;20586;-75
2022/01/05 08:38:41;;;;;;;0.70;0.70;;;3.00;82.80;2.10;97357.00;;;;5096489;28;20212;-74
2022/01/05 08:41:08;;;;;;;0.77;0.77;;;3.00;82.70;2.10;97323.00;;;;5096451;28;20289;-75
2022/01/05 08:43:35;;;;;;;0.60;0.60;;;3.00;84.00;2.00;97365.00;;;;5113314;28;20719;-74
2022/01/05 08:46:02;;;;;;;1.13;1.03;;;2.90;82.40;2.00;97357.00;;;;5096397;28;20204;-75
2022/01/05 08:48:28;;;;;;;0.80;0.77;;;3.00;81.30;2.10;97362.00;;;;5096620;28;20305;-75
2022/01/05 08:50:55;;;;;;;0.60;0.60;;;3.00;81.70;2.00;97378.00;;;;5096251;28;20241;-76
2022/01/05 08:53:21;;;;;;;0.80;0.80;;;2.90;79.40;2.00;97391.00;;;;5096146;28;20250;-76
2022/01/05 08:55:50;;;;;;;0.60;0.60;;;2.90;80.70;2.00;97392.00;;;;5096339;28;20209;-75
2022/01/05 08:58:20;;;;;;;0.70;0.70;;;2.90;76.20;2.10;97398.00;;;;5097413;28;20215;-77
2022/01/05 09:00:48;;;;;;;0.60;0.60;;;2.90;75.30;2.10;97409.00;;;;5099632;28;20232;-77
2022/01/05 09:03:18;;;;;;;0.70;0.70;;;3.00;76.90;2.10;97396.00;;;;5099964;28;20231;-78
2022/01/05 09:05:46;;;;;;;0.60;0.60;;;3.00;73.40;2.20;97396.00;;;;5099846;28;20663;-77
2022/01/05 09:08:13;;;;;;;1.27;1.17;;;3.00;73.80;2.10;97397.00;;;;5099846;28;20216;-77
2022/01/05 09:10:43;;;;;;;2.40;2.30;;;3.00;71.80;2.10;97409.00;;;;5099708;28;20200;-77
2022/01/05 09:13:10;;;;;;;1.30;1.13;;;3.00;71.10;1.90;97378.00;;;;5099423;28;20227;-76
2022/01/05 09:15:40;;;;;;;0.80;0.80;;;2.90;70.60;2.00;97414.00;;;;5099544;28;20211;-77
2022/01/05 09:18:07;;;;;;;0.57;0.57;;;2.90;71.30;1.90;97384.00;;;;5099466;28;20198;-75
2022/01/05 09:20:37;;;;;;;0.80;0.80;;;2.90;71.60;2.00;97411.00;;;;5099777;28;20509;-78
2022/01/05 09:23:03;;;;;;;0.60;0.60;;;2.90;72.10;1.80;97430.00;;;;5099668;28;20238;-77
2022/01/05 09:25:31;;;;;;;0.53;0.53;;;2.70;69.70;1.90;97420.00;;;;5100427;28;20323;-77
2022/01/05 09:27:57;;;;;;;0.70;0.70;;;2.80;71.40;1.90;97424.00;;;;5102526;28;20276;-77
2022/01/05 09:30:27;;;;;;;0.70;0.70;;;2.70;71.70;1.90;97406.00;;;;5112404;28;20200;-76
2022/01/05 09:32:54;;;;;;;0.60;0.60;;;2.70;71.40;1.80;97443.00;;;;5112545;28;20215;-81
2022/01/05 09:35:24;;;;;;;0.80;0.80;;;2.70;71.30;2.00;97444.00;;;;5101614;28;20197;-78
2022/01/05 09:38:05;;;;;;;1.30;1.23;;;2.80;71.60;1.80;97459.00;;;;5099843;28;20199;-76
2022/01/05 09:43:17;;;;;;;0.80;0.80;;;2.90;73.60;2.20;97467.00;;;;5106751;28;20659;-76
2022/01/05 09:45:59;;;;;;;0.93;0.93;;;3.00;73.80;2.40;97473.00;;;;5130932;28;20248;-77
2022/01/05 09:48:45;;;;;;;0.60;0.60;;;3.10;74.10;2.40;97478.00;;;;5110790;28;20235;-76
2022/01/05 09:51:20;;;;;;;0.73;0.73;;;3.20;73.70;2.30;97495.00;;;;5100389;28;20228;-76
2022/01/05 09:53:50;;;;;;;0.77;0.77;;;3.20;72.80;2.20;97495.00;;;;5099179;28;20231;-77
2022/01/05 09:56:19;;;;;;;1.23;1.13;;;3.10;74.40;2.50;97499.00;;;;5099020;28;20208;-77
2022/01/05 09:58:46;;;;;;;0.70;0.70;;;3.20;75.40;2.50;97494.00;;;;5099009;28;20747;-76
2022/01/05 10:01:13;;;;;;;0.80;0.80;;;3.30;74.10;2.60;97495.00;;;;5098865;28;20215;-77
2022/01/05 10:03:40;;;;;;;0.53;0.53;;;3.40;72.50;2.60;97498.00;;;;5098782;28;20611;-76
2022/01/05 10:06:07;;;;;;;0.50;0.50;;;3.40;72.90;2.50;97502.00;;;;5098840;28;20287;-77
2022/01/05 10:08:35;;;;;;;0.90;0.90;;;3.40;70.40;2.20;97495.00;;;;5098717;28;20209;-78
2022/01/05 10:11:02;;;;;;;6.20;0.87;;;3.20;70.60;2.10;97497.00;;;;5097732;28;20231;-78
2022/01/05 10:13:29;;;;;;;1.50;1.50;;;3.00;70.30;2.20;97510.00;;;;5098789;28;20205;-77
2022/01/05 10:15:56;;;;;;;0.70;0.70;;;3.10;69.80;2.30;97511.00;;;;5098523;28;20227;-81
2022/01/05 10:18:22;;;;;;;1.10;1.03;;;3.10;69.70;2.30;97519.00;;;;5098304;28;20240;-74
2022/01/05 10:20:59;;;;;;;0.60;0.60;;;3.10;70.10;2.30;97490.00;;;;5098342;28;20208;-74
2022/01/05 10:23:38;;;;;;;1.07;1.00;;;3.20;69.40;2.30;97520.00;;;;5098314;28;20235;-75
2022/01/05 10:26:27;;;;;;;1.10;1.10;;;3.20;69.60;2.40;97524.00;;;;5098495;28;20238;-74
2022/01/05 10:28:56;;;;;;;0.60;0.60;;;3.20;66.40;2.50;97509.00;;;;5098454;28;20242;-75
2022/01/05 10:31:26;;;;;;;0.50;0.50;;;3.30;66.50;2.90;97526.00;;;;5098318;28;20232;-82
2022/01/05 10:33:53;;;;;;;0.50;0.50;;;3.60;65.90;2.90;97527.00;;;;5098264;28;20652;-77
2022/01/05 10:36:21;;;;;;;1.60;1.47;;;3.70;65.30;3.10;97524.00;;;;5098150;28;20197;-78
2022/01/05 10:38:54;;;;;;;2.10;0.90;;;3.90;63.60;3.30;97521.00;;;;5098141;28;20201;-78
2022/01/05 10:41:24;;;;;;;0.73;0.73;;;4.00;62.60;3.40;97540.00;;;;5098320;28;20229;-79
2022/01/05 10:44:19;;;;;;;0.60;0.60;;;4.00;64.00;3.50;97533.00;;;;5098072;28;20327;-78
2022/01/05 10:46:49;;;;;;;0.70;0.70;;;4.20;62.10;3.10;97540.00;;;;5098334;28;20208;-77
2022/01/05 10:49:29;;;;;;;14.63;1.10;;;4.00;62.50;3.10;97538.00;;;;5098229;28;20710;-77
2022/01/05 10:52:01;;;;;;;0.93;0.93;;;3.90;61.90;3.40;97543.00;;;;5098092;28;20263;-79
2022/01/05 10:54:30;;;;;;;4.90;1.90;;;4.10;61.30;3.20;97542.00;;;;5097982;28;20193;-79
2022/01/05 10:57:09;;;;;;;0.70;0.70;;;4.10;60.50;3.00;97545.00;;;;5098069;28;20280;-80
2022/01/05 10:59:38;;;;;;;0.97;0.97;;;3.90;60.50;3.00;97549.00;;;;5098133;28;20293;-78
2022/01/05 11:02:25;;;;;;;0.77;0.77;;;3.90;60.30;3.10;97553.00;;;;5097784;28;20282;-80
2022/01/05 11:04:54;;;;;;;3.73;1.83;;;3.90;61.40;3.00;97559.00;;;;5097994;28;20198;-76
2022/01/05 11:07:23;;;;;;;1.20;0.93;;;3.80;61.90;3.00;97553.00;;;;5097926;28;20194;-76
2022/01/05 11:10:00;;;;;;;0.57;0.57;;;3.80;61.80;3.00;97556.00;;;;5097858;28;20237;-75
2022/01/05 11:12:36;;;;;;;0.63;0.63;;;3.90;60.60;3.10;97556.00;;;;5097914;28;20204;-78
2022/01/05 11:15:27;;;;;;;0.60;0.60;;;3.90;60.80;2.80;97556.00;;;;5097573;28;20254;-75